Time;durP1;ratioP1;P1;durP2;ratioP2;P2;SDS_P1;SDS_P2;PMS_P1;PMS_P2;Temp;Humidity;BMP_temperature;BMP_pressure;BME280_temperature;BME280_humidity;BME280_pressure;Samples;Min_cycle;Max_cycle;Signal;HPM_P1;HPM_P2
2022/12/08 00:00:04;;;;;;;;;;;;;;;6.44;56.89;93657.31;4991336;28;19971;-79
2022/12/08 00:02:30;;;;;;;;;;;;;;;6.31;57.35;93658.09;5012221;28;19988;-79
2022/12/08 00:10:23;;;;;;;;;;;;;;;6.35;56.54;93670.41;5007171;28;20482;-79
2022/12/08 00:12:48;;;;;;;;;;;;;;;6.38;57.12;93674.31;5005847;28;19921;-78
2022/12/08 00:15:13;;;;;;;;;;;;;;;6.40;57.43;93682.75;5021757;28;20290;-79
2022/12/08 00:17:39;;;;;;;;;;;;;;;6.43;57.29;93688.25;5007526;28;20375;-79
2022/12/08 00:20:04;;;;;;;;;;;;;;;6.47;57.65;93691.06;5023250;28;19952;-78
2022/12/08 00:22:31;;;;;;;;;;;;;;;6.45;57.99;93692.44;5021185;28;19921;-78
2022/12/08 00:24:56;;;;;;;;;;;;;;;6.49;57.36;93686.28;5005204;28;19925;-78
2022/12/08 00:27:21;;;;;;;;;;;;;;;6.18;58.31;93693.13;5007906;28;20327;-78
2022/12/08 00:29:47;;;;;;;;;;;;;;;6.25;58.53;93688.28;5004008;28;19961;-76
2022/12/08 00:32:12;;;;;;;;;;;;;;;6.15;59.31;93685.78;5008036;28;19921;-79
2022/12/08 00:34:37;;;;;;;;;;;;;;;6.08;59.93;93687.97;5005492;28;20371;-79
2022/12/08 00:37:03;;;;;;;;;;;;;;;6.18;59.88;93693.13;5006797;28;19917;-78
2022/12/08 00:39:28;;;;;;;;;;;;;;;6.13;60.44;93690.53;5007637;28;19921;-80
2022/12/08 00:42:12;;;;;;;;;;;;;;;6.04;60.95;93692.28;5008666;28;19925;-79
2022/12/08 00:44:38;;;;;;;;;;;;;;;6.12;60.87;93691.59;5006652;28;19920;-80
2022/12/08 00:47:03;;;;;;;;;;;;;;;6.24;59.99;93697.28;5005615;28;19913;-79
2022/12/08 00:49:29;;;;;;;;;;;;;;;6.33;59.41;93700.81;5007389;28;20315;-79
2022/12/08 00:51:54;;;;;;;;;;;;;;;6.41;58.50;93700.94;5005714;28;20511;-79
2022/12/08 00:54:20;;;;;;;;;;;;;;;6.38;58.39;93706.03;5007261;28;20277;-80
2022/12/08 00:56:45;;;;;;;;;;;;;;;6.42;58.10;93707.78;5006946;28;19970;-78
2022/12/08 00:59:10;;;;;;;;;;;;;;;6.45;57.83;93695.88;5004684;28;20775;-79
2022/12/08 01:01:36;;;;;;;;;;;;;;;6.48;57.51;93697.16;5007262;28;20627;-79
2022/12/08 01:04:05;;;;;;;;;;;;;;;6.50;57.63;93684.44;5007445;28;20038;-79
2022/12/08 01:06:30;;;;;;;;;;;;;;;6.53;57.44;93684.63;5004056;28;19978;-78
2022/12/08 01:08:55;;;;;;;;;;;;;;;6.56;57.35;93684.03;5005595;28;19932;-79
2022/12/08 01:11:21;;;;;;;;;;;;;;;6.54;57.22;93694.13;5004624;28;19917;-77
2022/12/08 01:13:46;;;;;;;;;;;;;;;6.53;57.16;93682.00;5018053;28;20281;-77
2022/12/08 01:16:18;;;;;;;;;;;;;;;6.57;57.02;93685.63;5003974;28;19933;-77
2022/12/08 01:18:43;;;;;;;;;;;;;;;6.60;56.89;93689.56;5006025;28;19976;-77
2022/12/08 01:21:09;;;;;;;;;;;;;;;6.57;57.10;93685.63;5003025;28;19921;-76
2022/12/08 01:23:34;;;;;;;;;;;;;;;6.43;57.62;93687.44;5006520;28;20351;-76
2022/12/08 01:26:03;;;;;;;;;;;;;;;6.36;57.90;93692.34;5020099;28;19917;-77
2022/12/08 01:28:29;;;;;;;;;;;;;;;6.15;58.07;93649.59;5006550;28;19917;-76
2022/12/08 01:30:55;;;;;;;;;;;;;;;6.28;58.23;93690.34;5003476;28;20118;-76
2022/12/08 01:33:20;;;;;;;;;;;;;;;6.41;58.21;93685.09;5008396;28;20448;-77
2022/12/08 01:35:46;;;;;;;;;;;;;;;6.47;57.92;93680.50;5005244;28;19924;-76
2022/12/08 01:38:11;;;;;;;;;;;;;;;6.48;57.59;93681.28;5006520;28;19913;-76
2022/12/08 01:40:36;;;;;;;;;;;;;;;6.48;57.31;93665.44;5006087;28;19928;-77
2022/12/08 01:43:01;;;;;;;;;;;;;;;6.46;57.35;93664.97;5006149;28;20332;-78
2022/12/08 01:45:28;;;;;;;;;;;;;;;6.50;57.45;93656.16;5003202;28;19920;-78
2022/12/08 01:47:57;;;;;;;;;;;;;;;6.51;57.17;93657.72;5017522;28;20275;-77
2022/12/08 01:50:23;;;;;;;;;;;;;;;6.50;56.71;93664.09;5020549;28;20003;-77
2022/12/08 01:52:58;;;;;;;;;;;;;;;6.47;56.99;93662.00;5007524;28;20399;-76
2022/12/08 01:55:26;;;;;;;;;;;;;;;6.49;56.80;93664.38;5003507;28;19921;-76
2022/12/08 01:57:54;;;;;;;;;;;;;;;6.45;56.39;93661.53;4991724;28;19952;-77
2022/12/08 02:00:20;;;;;;;;;;;;;;;6.47;56.50;93650.66;4987660;28;19980;-77
2022/12/08 02:02:46;;;;;;;;;;;;;;;6.48;56.46;93647.72;4996956;28;20023;-77
2022/12/08 02:05:12;;;;;;;;;;;;;;;6.46;56.25;93649.88;5006707;28;20369;-77
2022/12/08 02:07:37;;;;;;;;;;;;;;;6.47;56.43;93667.28;5002584;28;19921;-78
2022/12/08 02:10:03;;;;;;;;;;;;;;;6.31;56.67;93664.13;4984500;28;19928;-76
2022/12/08 02:12:28;;;;;;;;;;;;;;;5.85;56.95;93592.78;4994540;28;19978;-77
2022/12/08 02:14:54;;;;;;;;;;;;;;;6.31;57.11;93650.16;5005348;28;20329;-78
2022/12/08 02:17:19;;;;;;;;;;;;;;;6.26;56.83;93652.88;5007447;28;19970;-77
2022/12/08 02:19:47;;;;;;;;;;;;;;;6.29;56.47;93650.44;5002560;28;19971;-76
2022/12/08 02:22:15;;;;;;;;;;;;;;;6.32;56.20;93649.06;5005540;28;19921;-76
2022/12/08 02:24:41;;;;;;;;;;;;;;;6.33;55.98;93655.91;5004114;28;19940;-77
2022/12/08 02:27:12;;;;;;;;;;;;;;;6.28;56.03;93650.72;5004177;28;19924;-77
2022/12/08 02:29:37;;;;;;;;;;;;;;;6.29;55.92;93649.66;5002171;28;20472;-76
2022/12/08 02:32:17;;;;;;;;;;;;;;;6.17;55.90;93658.03;5006629;28;19913;-77
2022/12/08 02:34:45;;;;;;;;;;;;;;;6.20;55.82;93657.47;5003264;28;20377;-77
2022/12/08 02:37:17;;;;;;;;;;;;;;;6.18;55.53;93642.97;4992823;28;20300;-78
2022/12/08 02:39:47;;;;;;;;;;;;;;;6.18;56.06;93646.38;4995480;28;19960;-77
2022/12/08 02:42:26;;;;;;;;;;;;;;;5.98;56.19;93644.03;4993790;28;20364;-75
2022/12/08 02:44:56;;;;;;;;;;;;;;;5.78;57.37;93641.69;5005733;28;19917;-77
2022/12/08 02:47:23;;;;;;;;;;;;;;;5.91;57.23;93641.78;5002387;28;20321;-76
2022/12/08 02:49:48;;;;;;;;;;;;;;;5.97;56.84;93651.16;5005381;28;19988;-77
2022/12/08 02:52:13;;;;;;;;;;;;;;;5.75;57.58;93656.28;5005128;28;20469;-76
2022/12/08 02:54:48;;;;;;;;;;;;;;;5.49;58.44;93637.38;5004841;28;19921;-77
2022/12/08 02:57:13;;;;;;;;;;;;;;;5.62;59.04;93635.09;4993228;28;19979;-76
2022/12/08 02:59:50;;;;;;;;;;;;;;;5.73;58.58;93637.28;5007960;28;19913;-76
2022/12/08 03:02:35;;;;;;;;;;;;;;;5.83;58.00;93637.13;5008846;28;19957;-77
2022/12/08 03:05:00;;;;;;;;;;;;;;;5.86;57.37;93633.16;4971710;28;19955;-78
2022/12/08 03:07:30;;;;;;;;;;;;;;;5.84;57.17;93636.06;4997068;28;19913;-76
2022/12/08 03:10:09;;;;;;;;;;;;;;;5.79;57.24;93635.34;5008055;28;20697;-77
2022/12/08 03:13:04;;;;;;;;;;;;;;;5.87;57.09;93648.69;4992003;28;19921;-77
2022/12/08 03:15:30;;;;;;;;;;;;;;;5.93;56.72;93649.41;4978286;28;19925;-77
2022/12/08 03:17:57;;;;;;;;;;;;;;;5.92;56.51;93638.06;5007762;28;20405;-77
2022/12/08 03:20:23;;;;;;;;;;;;;;;5.93;56.27;93642.25;5009042;28;20396;-77
2022/12/08 03:22:51;;;;;;;;;;;;;;;5.95;56.15;93634.06;5006184;28;19917;-77
2022/12/08 03:25:18;;;;;;;;;;;;;;;5.93;55.89;93638.84;5009291;28;19918;-77
2022/12/08 03:27:43;;;;;;;;;;;;;;;5.92;56.32;93629.38;5001002;28;20678;-76
2022/12/08 03:30:09;;;;;;;;;;;;;;;5.94;56.17;93633.28;5008327;28;20429;-77
2022/12/08 03:32:48;;;;;;;;;;;;;;;5.97;55.92;93637.19;4990898;28;20006;-77
2022/12/08 03:35:15;;;;;;;;;;;;;;;5.94;56.13;93628.00;5009587;28;19910;-77
2022/12/08 03:37:41;;;;;;;;;;;;;;;5.90;55.84;93637.56;4989387;28;20521;-77
2022/12/08 03:40:07;;;;;;;;;;;;;;;5.92;56.21;93634.66;5007640;28;19921;-77
2022/12/08 03:42:33;;;;;;;;;;;;;;;5.86;56.04;93641.84;5007620;28;19952;-77
2022/12/08 03:44:58;;;;;;;;;;;;;;;5.85;56.17;93639.50;5008200;28;20008;-77
2022/12/08 03:47:23;;;;;;;;;;;;;;;5.84;56.22;93649.28;5008157;28;19968;-77
2022/12/08 03:49:48;;;;;;;;;;;;;;;5.87;57.04;93642.66;5008839;28;20848;-77
2022/12/08 03:52:14;;;;;;;;;;;;;;;5.92;56.70;93645.22;5006734;28;19917;-76
2022/12/08 03:54:39;;;;;;;;;;;;;;;5.86;56.32;93646.34;5007906;28;19983;-77
2022/12/08 03:57:04;;;;;;;;;;;;;;;5.91;56.50;93649.69;5004753;28;19921;-77
2022/12/08 03:59:29;;;;;;;;;;;;;;;5.80;56.57;93653.56;5005420;28;19913;-76
2022/12/08 04:01:55;;;;;;;;;;;;;;;5.80;57.11;93639.56;5004224;28;20440;-77
2022/12/08 04:04:20;;;;;;;;;;;;;;;5.63;57.26;93624.25;5007883;28;19928;-78
2022/12/08 04:06:46;;;;;;;;;;;;;;;5.89;57.28;93656.31;5003115;28;19972;-77
2022/12/08 04:09:11;;;;;;;;;;;;;;;5.92;57.25;93656.53;5006829;28;19926;-78
2022/12/08 04:11:36;;;;;;;;;;;;;;;5.88;57.37;93660.03;5009152;28;19913;-78
2022/12/08 04:14:02;;;;;;;;;;;;;;;5.94;57.65;93661.53;5006713;28;19909;-76
2022/12/08 04:16:27;;;;;;;;;;;;;;;6.02;57.54;93666.16;5007413;28;19922;-76
2022/12/08 04:18:53;;;;;;;;;;;;;;;6.02;57.45;93660.88;5005790;28;19917;-79
2022/12/08 04:21:18;;;;;;;;;;;;;;;6.02;57.79;93656.38;5007495;28;19925;-78
2022/12/08 04:23:44;;;;;;;;;;;;;;;6.02;57.60;93663.50;5006060;28;20389;-77
2022/12/08 04:26:09;;;;;;;;;;;;;;;5.96;58.06;93664.69;5005883;28;20447;-78
2022/12/08 04:28:35;;;;;;;;;;;;;;;5.96;58.21;93657.53;4991912;28;20656;-77
2022/12/08 04:31:00;;;;;;;;;;;;;;;5.98;58.22;93655.38;5001589;28;20252;-77
2022/12/08 04:33:25;;;;;;;;;;;;;;;5.99;58.50;93651.69;5007100;28;20091;-78
2022/12/08 04:35:51;;;;;;;;;;;;;;;6.06;58.19;93658.44;5005802;28;20004;-78
2022/12/08 04:38:16;;;;;;;;;;;;;;;6.11;58.25;93653.09;5007297;28;19913;-78
2022/12/08 04:40:41;;;;;;;;;;;;;;;6.06;58.02;93661.09;5006988;28;20020;-78
2022/12/08 04:43:06;;;;;;;;;;;;;;;6.06;58.43;93653.97;5007787;28;19925;-78
2022/12/08 04:45:32;;;;;;;;;;;;;;;6.10;58.11;93646.25;5005073;28;20521;-77
2022/12/08 04:47:58;;;;;;;;;;;;;;;5.85;59.03;93660.63;5009166;28;19959;-78
2022/12/08 04:50:23;;;;;;;;;;;;;;;5.99;59.08;93662.25;5006067;28;20288;-78
2022/12/08 04:52:49;;;;;;;;;;;;;;;6.06;59.00;93666.38;5005501;28;19921;-77
2022/12/08 04:55:14;;;;;;;;;;;;;;;6.16;58.69;93666.25;5005911;28;20348;-78
2022/12/08 04:57:39;;;;;;;;;;;;;;;6.23;58.49;93669.28;5006132;28;20776;-80
2022/12/08 05:00:05;;;;;;;;;;;;;;;6.29;58.15;93665.50;5003513;28;19956;-79
2022/12/08 05:02:31;;;;;;;;;;;;;;;6.29;58.50;93665.50;5003877;28;19920;-78
2022/12/08 05:04:56;;;;;;;;;;;;;;;6.24;58.70;93663.72;5007299;28;19923;-78
2022/12/08 05:07:22;;;;;;;;;;;;;;;6.20;59.21;93665.38;5000746;28;19921;-77
2022/12/08 05:09:47;;;;;;;;;;;;;;;6.29;59.33;93678.72;5005433;28;19979;-78
2022/12/08 05:12:12;;;;;;;;;;;;;;;6.29;59.28;93668.94;5004195;28;19917;-76
2022/12/08 05:14:37;;;;;;;;;;;;;;;6.34;59.60;93670.69;4990730;28;20444;-78
2022/12/08 05:17:03;;;;;;;;;;;;;;;6.28;59.50;93674.50;5005545;28;19913;-80
2022/12/08 05:19:28;;;;;;;;;;;;;;;6.26;59.52;93682.69;5006309;28;19921;-78
2022/12/08 05:21:53;;;;;;;;;;;;;;;6.37;59.22;93683.31;5004196;28;19916;-79
2022/12/08 05:24:19;;;;;;;;;;;;;;;6.42;58.93;93685.88;5006745;28;19917;-78
2022/12/08 05:26:44;;;;;;;;;;;;;;;6.45;58.89;93680.03;5006074;28;20045;-78
2022/12/08 05:29:10;;;;;;;;;;;;;;;6.46;58.45;93676.28;5004925;28;20463;-78
2022/12/08 05:31:35;;;;;;;;;;;;;;;6.47;58.27;93683.16;5001543;28;19975;-78
2022/12/08 05:34:00;;;;;;;;;;;;;;;6.45;58.06;93689.81;5005786;28;19975;-79
2022/12/08 05:36:25;;;;;;;;;;;;;;;6.47;58.05;93688.44;5003896;28;20169;-78
2022/12/08 05:38:51;;;;;;;;;;;;;;;6.48;57.92;93695.28;5004912;28;19932;-78
2022/12/08 05:41:17;;;;;;;;;;;;;;;6.47;57.63;93704.28;5005951;28;19913;-78
2022/12/08 05:43:43;;;;;;;;;;;;;;;6.40;57.47;93703.88;5001836;28;20395;-78
2022/12/08 05:46:08;;;;;;;;;;;;;;;6.40;57.67;93704.69;5006429;28;19914;-78
2022/12/08 05:48:33;;;;;;;;;;;;;;;6.43;57.62;93708.59;5004600;28;20372;-78
2022/12/08 05:50:59;;;;;;;;;;;;;;;6.31;57.33;93705.63;5000465;28;19964;-78
2022/12/08 05:53:25;;;;;;;;;;;;;;;6.32;57.38;93700.03;5005705;28;20345;-78
2022/12/08 05:55:50;;;;;;;;;;;;;;;6.31;57.41;93700.34;5004088;28;19929;-78
2022/12/08 05:58:17;;;;;;;;;;;;;;;6.23;57.47;93701.75;4990363;28;19952;-78
2022/12/08 06:00:42;;;;;;;;;;;;;;;6.19;57.63;93697.34;5006263;28;19925;-78
2022/12/08 06:03:09;;;;;;;;;;;;;;;6.24;57.61;93694.63;5001727;28;19932;-78
2022/12/08 06:05:34;;;;;;;;;;;;;;;6.24;57.16;93715.75;5004328;28;19945;-77
2022/12/08 06:08:00;;;;;;;;;;;;;;;6.03;57.49;93712.59;5005053;28;20063;-78
2022/12/08 06:10:25;;;;;;;;;;;;;;;6.07;58.30;93710.19;5002781;28;20442;-78
2022/12/08 06:12:50;;;;;;;;;;;;;;;6.12;57.79;93712.72;5006335;28;20028;-77
2022/12/08 06:15:16;;;;;;;;;;;;;;;6.02;57.55;93706.53;5001663;28;20406;-77
2022/12/08 06:17:41;;;;;;;;;;;;;;;6.02;57.66;93714.44;5005934;28;19916;-78
2022/12/08 06:20:06;;;;;;;;;;;;;;;6.07;57.55;93713.59;5006814;28;19932;-78
2022/12/08 06:22:32;;;;;;;;;;;;;;;6.12;57.56;93718.78;5003349;28;19920;-75
2022/12/08 06:24:57;;;;;;;;;;;;;;;6.11;57.65;93719.91;5003758;28;19921;-76
2022/12/08 06:27:22;;;;;;;;;;;;;;;6.16;57.40;93737.53;5003517;28;19968;-77
2022/12/08 06:29:48;;;;;;;;;;;;;;;6.11;57.47;93732.31;5000866;28;20316;-77
2022/12/08 06:32:13;;;;;;;;;;;;;;;6.13;57.79;93724.88;5005594;28;19910;-77
2022/12/08 06:34:38;;;;;;;;;;;;;;;6.19;57.81;93723.75;4992436;28;19917;-77
2022/12/08 06:37:04;;;;;;;;;;;;;;;6.22;57.78;93723.16;5006663;28;20368;-76
2022/12/08 06:39:29;;;;;;;;;;;;;;;6.20;57.89;93723.47;5009291;28;19913;-76
2022/12/08 06:44:38;;;;;;;;;;;;;;;6.05;57.99;93717.59;5006499;28;19943;-76
2022/12/08 06:47:03;;;;;;;;;;;;;;;6.04;58.10;93716.03;5007995;28;20201;-78
2022/12/08 06:49:28;;;;;;;;;;;;;;;6.11;58.32;93705.91;5006293;28;20344;-79
2022/12/08 06:51:54;;;;;;;;;;;;;;;6.17;58.51;93705.53;4990242;28;20088;-77
2022/12/08 06:54:19;;;;;;;;;;;;;;;6.23;58.61;93709.69;5007533;28;19952;-79
2022/12/08 06:56:44;;;;;;;;;;;;;;;6.14;58.93;93710.59;5008540;28;20308;-79
2022/12/08 06:59:09;;;;;;;;;;;;;;;6.24;58.82;93705.19;5008272;28;19914;-78
2022/12/08 07:01:35;;;;;;;;;;;;;;;6.32;58.94;93707.16;5005138;28;20020;-78
2022/12/08 07:04:00;;;;;;;;;;;;;;;6.39;59.11;93718.16;5007399;28;19958;-78
2022/12/08 07:06:26;;;;;;;;;;;;;;;6.42;58.77;93722.84;5003354;28;20484;-77
2022/12/08 07:08:51;;;;;;;;;;;;;;;6.16;60.20;93726.97;5003525;28;19928;-78
2022/12/08 07:11:17;;;;;;;;;;;;;;;6.33;60.03;93729.88;5003683;28;20794;-77
2022/12/08 07:13:42;;;;;;;;;;;;;;;6.24;59.97;93726.31;5003729;28;19920;-79
2022/12/08 07:16:08;;;;;;;;;;;;;;;6.36;59.81;93745.16;5003139;28;19921;-80
2022/12/08 07:18:34;;;;;;;;;;;;;;;6.37;59.93;93742.22;4993767;28;19921;-78
2022/12/08 07:21:06;;;;;;;;;;;;;;;6.45;59.75;93753.22;5003541;28;20419;-78
2022/12/08 07:23:32;;;;;;;;;;;;;;;6.54;59.84;93754.13;5004808;28;20427;-79
2022/12/08 07:26:01;;;;;;;;;;;;;;;6.57;59.51;93761.47;5006170;28;19913;-79
2022/12/08 07:28:28;;;;;;;;;;;;;;;6.57;59.56;93764.88;4991429;28;20354;-78
2022/12/08 07:30:53;;;;;;;;;;;;;;;6.55;59.33;93764.41;5006014;28;19929;-78
2022/12/08 07:33:19;;;;;;;;;;;;;;;6.38;59.73;93772.06;5005117;28;19913;-79
2022/12/08 07:35:44;;;;;;;;;;;;;;;6.26;59.71;93755.88;5006435;28;20461;-77
2022/12/08 07:38:09;;;;;;;;;;;;;;;6.48;59.57;93769.25;4991780;28;19913;-77
2022/12/08 07:40:37;;;;;;;;;;;;;;;6.47;59.42;93772.97;5004343;28;19928;-78
2022/12/08 07:43:02;;;;;;;;;;;;;;;6.55;59.00;93768.91;5009139;28;20483;-79
2022/12/08 07:45:27;;;;;;;;;;;;;;;6.60;58.83;93766.19;5006664;28;19921;-79
2022/12/08 07:47:52;;;;;;;;;;;;;;;6.67;58.66;93766.59;5007539;28;19925;-78
2022/12/08 07:50:18;;;;;;;;;;;;;;;6.65;58.50;93764.22;5008694;28;20204;-78
2022/12/08 07:52:43;;;;;;;;;;;;;;;6.66;58.72;93759.72;5006814;28;19917;-80
2022/12/08 07:55:08;;;;;;;;;;;;;;;6.70;58.50;93761.50;5005064;28;20378;-79
2022/12/08 07:57:34;;;;;;;;;;;;;;;6.70;58.38;93764.13;5003585;28;20135;-78
2022/12/08 07:59:59;;;;;;;;;;;;;;;6.74;58.50;93751.94;4998348;28;19928;-78
2022/12/08 08:02:24;;;;;;;;;;;;;;;6.79;58.42;93759.78;5003030;28;19921;-78
2022/12/08 08:04:50;;;;;;;;;;;;;;;6.76;58.49;93765.63;5003419;28;19956;-77
2022/12/08 08:07:15;;;;;;;;;;;;;;;6.69;58.79;93770.53;5001121;28;19940;-76
2022/12/08 08:09:40;;;;;;;;;;;;;;;6.69;59.04;93759.16;5004763;28;19945;-78
2022/12/08 08:12:06;;;;;;;;;;;;;;;6.76;58.94;93760.34;4987528;28;19929;-75
2022/12/08 08:14:34;;;;;;;;;;;;;;;6.73;59.54;93750.38;5002604;28;20021;-76
2022/12/08 08:16:59;;;;;;;;;;;;;;;6.81;59.26;93751.53;5003949;28;20383;-77
2022/12/08 08:19:25;;;;;;;;;;;;;;;6.90;59.59;93759.63;5004585;28;19917;-78
2022/12/08 08:21:50;;;;;;;;;;;;;;;6.81;59.45;93741.75;4989950;28;19931;-77
2022/12/08 08:24:16;;;;;;;;;;;;;;;7.03;59.39;93764.91;4996742;28;19952;-78
2022/12/08 08:26:42;;;;;;;;;;;;;;;7.10;59.09;93761.88;5004191;28;19924;-78
2022/12/08 08:29:07;;;;;;;;;;;;;;;7.15;59.42;93762.56;5004171;28;20381;-77
2022/12/08 08:31:32;;;;;;;;;;;;;;;7.17;59.58;93778.16;5000807;28;19922;-77
2022/12/08 08:33:59;;;;;;;;;;;;;;;7.20;59.36;93770.41;5004113;28;19921;-77
2022/12/08 08:36:24;;;;;;;;;;;;;;;7.26;59.40;93757.88;5007205;28;19963;-77
2022/12/08 08:38:50;;;;;;;;;;;;;;;7.13;59.73;93758.66;5001233;28;20024;-77
2022/12/08 08:41:15;;;;;;;;;;;;;;;7.28;59.34;93771.63;5003743;28;19945;-77
2022/12/08 08:43:40;;;;;;;;;;;;;;;7.34;59.00;93764.38;5001307;28;20111;-77
2022/12/08 08:46:07;;;;;;;;;;;;;;;7.25;59.15;93757.09;5002173;28;20367;-78
2022/12/08 08:48:33;;;;;;;;;;;;;;;7.05;59.71;93761.97;4986682;28;20173;-78
2022/12/08 08:50:58;;;;;;;;;;;;;;;7.22;59.75;93760.34;5003288;28;20374;-79
2022/12/08 08:53:24;;;;;;;;;;;;;;;7.24;59.62;93770.59;5001271;28;20326;-78
2022/12/08 08:55:49;;;;;;;;;;;;;;;7.28;59.66;93755.75;5001421;28;19991;-78
2022/12/08 08:58:14;;;;;;;;;;;;;;;7.29;59.77;93752.78;4999573;28;19925;-78
2022/12/08 09:00:40;;;;;;;;;;;;;;;7.30;59.54;93746.41;5000575;28;19926;-78
2022/12/08 09:03:05;;;;;;;;;;;;;;;7.39;59.55;93743.88;5009228;28;19925;-77
2022/12/08 09:05:30;;;;;;;;;;;;;;;7.38;60.36;93750.25;5003084;28;19913;-78
2022/12/08 09:07:56;;;;;;;;;;;;;;;7.42;60.53;93742.50;4998641;28;19913;-78
2022/12/08 09:10:21;;;;;;;;;;;;;;;7.04;61.31;93691.66;5001058;28;20024;-79
2022/12/08 09:12:46;;;;;;;;;;;;;;;7.03;62.89;93737.69;5002916;28;19917;-77
2022/12/08 09:15:11;;;;;;;;;;;;;;;6.81;64.34;93735.69;5004082;28;19925;-77
2022/12/08 09:17:37;;;;;;;;;;;;;;;7.03;64.45;93742.97;5004793;28;19968;-77
2022/12/08 09:20:02;;;;;;;;;;;;;;;7.30;63.71;93738.47;4999343;28;20499;-76
2022/12/08 09:22:28;;;;;;;;;;;;;;;7.09;63.38;93736.53;5005422;28;20304;-78
2022/12/08 09:24:53;;;;;;;;;;;;;;;7.00;63.70;93736.41;5019069;28;20319;-78
2022/12/08 09:27:18;;;;;;;;;;;;;;;7.28;63.45;93734.59;5002086;28;19921;-77
2022/12/08 09:29:43;;;;;;;;;;;;;;;7.41;62.95;93736.44;5003928;28;19917;-79
2022/12/08 09:32:09;;;;;;;;;;;;;;;7.48;62.26;93739.47;5003419;28;19913;-77
2022/12/08 09:34:34;;;;;;;;;;;;;;;7.67;61.89;93737.50;5006167;28;19940;-78
2022/12/08 09:37:00;;;;;;;;;;;;;;;7.84;61.70;93721.00;5006535;28;19921;-78
2022/12/08 09:39:25;;;;;;;;;;;;;;;7.73;61.42;93724.94;5001718;28;19921;-78
2022/12/08 09:41:58;;;;;;;;;;;;;;;7.93;60.71;93729.03;5006525;28;19949;-78
2022/12/08 09:44:43;;;;;;;;;;;;;;;7.98;60.42;93713.81;5005217;28;20035;-78
2022/12/08 09:47:26;;;;;;;;;;;;;;;8.14;60.40;93714.28;5005055;28;19979;-77
2022/12/08 09:50:05;;;;;;;;;;;;;;;8.01;60.16;93718.53;5008464;28;20289;-79
2022/12/08 09:52:37;;;;;;;;;;;;;;;8.02;60.85;93708.72;5006556;28;19921;-79
2022/12/08 09:55:08;;;;;;;;;;;;;;;7.85;61.40;93721.81;5005754;28;19963;-78
2022/12/08 09:57:33;;;;;;;;;;;;;;;8.05;60.50;93703.59;5006731;28;19927;-80
2022/12/08 10:00:01;;;;;;;;;;;;;;;8.13;60.39;93697.59;5008278;28;19917;-78
2022/12/08 10:02:27;;;;;;;;;;;;;;;8.06;61.46;93693.81;5003623;28;20408;-78
2022/12/08 10:04:54;;;;;;;;;;;;;;;7.82;61.49;93690.63;5006001;28;20590;-79
2022/12/08 10:07:25;;;;;;;;;;;;;;;7.89;61.93;93691.00;5004225;28;19928;-79
2022/12/08 10:10:26;;;;;;;;;;;;;;;8.00;61.64;93684.41;4997807;28;20001;-77
2022/12/08 10:12:57;;;;;;;;;;;;;;;8.11;61.16;93689.19;4997946;28;19921;-77
2022/12/08 10:15:34;;;;;;;;;;;;;;;8.12;61.06;93668.75;5011257;28;19933;-78
2022/12/08 10:18:01;;;;;;;;;;;;;;;8.22;61.19;93668.50;5013415;28;20445;-78
2022/12/08 10:20:34;;;;;;;;;;;;;;;8.40;60.79;93664.13;5015113;28;19959;-76
2022/12/08 10:23:05;;;;;;;;;;;;;;;8.45;60.03;93671.94;5008695;28;19967;-77
2022/12/08 10:25:37;;;;;;;;;;;;;;;8.57;59.73;93675.59;5010846;28;20505;-78
2022/12/08 10:28:02;;;;;;;;;;;;;;;8.61;59.48;93665.16;5010114;28;19964;-77
2022/12/08 10:30:27;;;;;;;;;;;;;;;8.53;59.42;93671.22;5011547;28;20023;-77
2022/12/08 10:32:53;;;;;;;;;;;;;;;8.66;59.64;93669.59;5008363;28;19971;-77
2022/12/08 10:35:19;;;;;;;;;;;;;;;8.82;59.23;93671.53;5011604;28;19924;-77
2022/12/08 10:37:56;;;;;;;;;;;;;;;8.93;58.78;93662.22;5007836;28;19919;-76
2022/12/08 10:40:21;;;;;;;;;;;;;;;8.88;58.56;93661.56;5010219;28;19971;-78
2022/12/08 10:42:47;;;;;;;;;;;;;;;8.99;58.16;93655.69;5022190;28;19921;-78
2022/12/08 10:45:24;;;;;;;;;;;;;;;9.06;57.57;93649.94;5007958;28;20400;-78
2022/12/08 10:47:58;;;;;;;;;;;;;;;9.22;57.37;93650.34;5011024;28;19967;-78
2022/12/08 10:50:27;;;;;;;;;;;;;;;9.39;58.09;93637.88;5008640;28;20426;-80
2022/12/08 10:52:57;;;;;;;;;;;;;;;9.51;57.50;93639.16;5011937;28;20201;-78
2022/12/08 10:55:22;;;;;;;;;;;;;;;9.66;57.05;93641.38;5009392;28;20251;-77
2022/12/08 10:57:48;;;;;;;;;;;;;;;9.72;57.30;93635.59;5009119;28;19968;-78
2022/12/08 11:00:22;;;;;;;;;;;;;;;9.85;55.68;93628.56;5009819;28;19957;-78
2022/12/08 11:02:55;;;;;;;;;;;;;;;9.94;55.24;93625.91;5010611;28;19979;-78
2022/12/08 11:05:21;;;;;;;;;;;;;;;10.04;55.21;93625.59;5018445;28;19920;-77
2022/12/08 11:07:51;;;;;;;;;;;;;;;10.10;54.52;93619.03;5008671;28;19956;-77
2022/12/08 11:10:17;;;;;;;;;;;;;;;10.18;54.72;93623.53;5009746;28;19929;-77
2022/12/08 11:12:43;;;;;;;;;;;;;;;10.33;54.12;93623.84;5008954;28;19921;-76
2022/12/08 11:15:13;;;;;;;;;;;;;;;10.19;53.44;93617.94;4994284;28;19952;-78
2022/12/08 11:17:38;;;;;;;;;;;;;;;10.07;53.46;93607.16;5008791;28;20071;-77
2022/12/08 11:20:10;;;;;;;;;;;;;;;10.12;53.72;93606.97;4993481;28;20362;-78
2022/12/08 11:22:42;;;;;;;;;;;;;;;10.18;53.51;93595.09;5009915;28;20296;-79
2022/12/08 11:25:10;;;;;;;;;;;;;;;10.01;54.07;93594.34;5009861;28;19917;-78
2022/12/08 11:27:39;;;;;;;;;;;;;;;9.98;54.41;93592.28;5009112;28;20501;-78
2022/12/08 11:30:24;;;;;;;;;;;;;;;10.16;54.12;93602.63;5009430;28;19929;-79
2022/12/08 11:32:53;;;;;;;;;;;;;;;10.16;53.35;93599.97;5009367;28;20026;-76
2022/12/08 11:35:25;;;;;;;;;;;;;;;10.06;53.14;93599.50;5009177;28;19913;-76
2022/12/08 11:37:51;;;;;;;;;;;;;;;10.23;53.17;93602.13;5002798;28;19921;-78
2022/12/08 11:40:22;;;;;;;;;;;;;;;10.32;52.94;93601.00;5008599;28;19925;-77
2022/12/08 11:43:04;;;;;;;;;;;;;;;10.24;52.67;93598.38;5005766;28;19921;-78
2022/12/08 11:45:31;;;;;;;;;;;;;;;10.27;52.81;93590.53;5004729;28;19920;-78
2022/12/08 11:48:03;;;;;;;;;;;;;;;10.13;53.32;93587.28;5012069;28;19929;-78
2022/12/08 11:50:32;;;;;;;;;;;;;;;9.99;53.19;93581.38;5005221;28;19924;-77
2022/12/08 11:52:58;;;;;;;;;;;;;;;10.10;53.14;93587.94;5012655;28;20501;-78
2022/12/08 11:55:42;;;;;;;;;;;;;;;10.07;53.07;93580.59;5007940;28;19921;-79
2022/12/08 11:58:18;;;;;;;;;;;;;;;10.08;53.07;93582.13;5008751;28;19979;-77
2022/12/08 12:00:43;;;;;;;;;;;;;;;10.10;52.75;93579.94;5006527;28;19927;-79
2022/12/08 12:03:35;;;;;;;;;;;;;;;10.23;52.65;93576.31;5017790;28;19925;-77
2022/12/08 12:06:00;;;;;;;;;;;;;;;10.08;52.84;93582.13;5012656;28;19988;-78
2022/12/08 12:08:40;;;;;;;;;;;;;;;9.99;52.98;93585.91;5008984;28;20345;-77
2022/12/08 12:12:11;;;;;;;;;;;;;;;9.99;52.55;93576.06;5006581;28;19921;-76
2022/12/08 12:14:18;;;;;;;;;;;;;;;10.12;53.03;93580.41;5006139;28;19924;-77
2022/12/08 12:16:43;;;;;;;;;;;;;;;10.25;52.68;93576.81;5007788;28;19925;-77
2022/12/08 12:19:14;;;;;;;;;;;;;;;10.11;52.21;93578.88;5008769;28;19932;-78
2022/12/08 12:21:48;;;;;;;;;;;;;;;10.26;52.10;93577.59;5005780;28;20023;-78
2022/12/08 12:24:20;;;;;;;;;;;;;;;10.33;51.80;93583.97;5005800;28;19918;-77
2022/12/08 12:26:54;;;;;;;;;;;;;;;10.25;51.78;93574.16;5008407;28;19956;-77
2022/12/08 12:29:22;;;;;;;;;;;;;;;10.47;51.88;93569.72;5009270;28;20360;-77
2022/12/08 12:31:50;;;;;;;;;;;;;;;10.52;51.75;93567.69;5010449;28;19971;-77
2022/12/08 12:34:18;;;;;;;;;;;;;;;10.54;51.63;93570.03;5006978;28;19983;-78
2022/12/08 12:36:47;;;;;;;;;;;;;;;10.45;51.64;93570.06;5006051;28;19925;-77
2022/12/08 12:39:13;;;;;;;;;;;;;;;10.47;51.95;93553.78;5006016;28;19986;-79
2022/12/08 12:41:44;;;;;;;;;;;;;;;10.68;51.73;93558.09;5008704;28;20456;-78
2022/12/08 12:44:12;;;;;;;;;;;;;;;10.73;51.57;93557.91;5005078;28;19909;-77
2022/12/08 12:46:41;;;;;;;;;;;;;;;10.67;51.61;93558.41;5008501;28;19921;-77
2022/12/08 12:49:24;;;;;;;;;;;;;;;10.60;52.03;93560.78;5005631;28;20378;-77
2022/12/08 12:51:54;;;;;;;;;;;;;;;10.62;51.87;93561.22;5020674;28;19924;-78
2022/12/08 12:54:23;;;;;;;;;;;;;;;10.43;51.91;93558.94;5006366;28;19977;-77
2022/12/08 12:56:50;;;;;;;;;;;;;;;10.27;52.14;93561.31;5006135;28;19921;-76
2022/12/08 12:59:32;;;;;;;;;;;;;;;10.46;51.90;93557.56;5007290;28;19921;-77
2022/12/08 13:01:58;;;;;;;;;;;;;;;10.68;51.52;93554.63;5005477;28;19968;-80
2022/12/08 13:04:31;;;;;;;;;;;;;;;10.80;51.38;93546.00;5006347;28;20011;-77